createdAt,value
2022-08-26T04:30:58.471Z,87.13
2022-08-26T04:31:58.416Z,86.99
2022-08-26T04:32:58.411Z,85.98
2022-08-26T04:33:58.378Z,86.48
2022-08-26T04:34:58.408Z,85.74
2022-08-26T04:35:58.348Z,84.83
2022-08-26T04:36:58.373Z,85.03
2022-08-26T04:37:58.329Z,85.38
2022-08-26T04:38:58.318Z,86.02
2022-08-26T04:39:58.342Z,87.27
2022-08-26T04:40:58.299Z,88.28
2022-08-26T04:41:58.288Z,88.22
2022-08-26T04:42:58.267Z,88.52
2022-08-26T04:43:58.248Z,88.82
2022-08-26T04:45:05.859Z,89.73
2022-08-26T04:45:58.243Z,88.98
2022-08-26T04:46:58.224Z,88.34
2022-08-26T04:47:58.256Z,87.43
2022-08-26T04:48:58.184Z,87.63
2022-08-26T04:49:58.175Z,87.53
2022-08-26T04:50:58.189Z,87.43
2022-08-26T04:51:58.165Z,87.02
2022-08-26T04:52:58.135Z,86.93
2022-08-26T04:53:58.126Z,87.13
2022-08-26T04:54:58.126Z,87.33
2022-08-26T04:55:58.113Z,87.13
2022-08-26T04:56:58.104Z,86.88
2022-08-26T04:57:58.090Z,87.08
2022-08-26T04:58:58.064Z,87.13
2022-08-26T04:59:58.047Z,87.23
2022-08-26T05:00:58.034Z,87.43
2022-08-26T05:01:58.055Z,87.93
2022-08-26T05:02:58.005Z,88.43
2022-08-26T05:03:58.024Z,88.54
2022-08-26T05:04:57.984Z,88.03
2022-08-26T05:05:57.971Z,87.93
2022-08-26T05:07:02.403Z,87.73
2022-08-26T05:07:58.945Z,88.43
2022-08-26T05:08:57.953Z,89.48
2022-08-26T05:09:57.914Z,90.09
2022-08-26T05:10:57.912Z,91.24
2022-08-26T05:11:57.941Z,91.74
2022-08-26T05:12:57.875Z,92.05
2022-08-26T05:14:00.335Z,92.05
2022-08-26T05:14:57.855Z,91.70
2022-08-26T05:16:00.009Z,91.30
2022-08-26T05:16:57.842Z,91.19
2022-08-26T05:17:57.854Z,91.80
2022-08-26T05:18:57.804Z,93.11
2022-08-26T05:19:57.783Z,93.81
2022-08-26T05:20:57.793Z,93.91
2022-08-26T05:21:57.764Z,94.32
2022-08-26T05:22:57.753Z,94.56
2022-08-26T05:23:57.744Z,94.76
2022-08-26T05:24:57.724Z,95.07
2022-08-26T05:26:00.442Z,95.17
2022-08-26T05:26:57.724Z,95.47
2022-08-26T05:27:57.703Z,95.57
2022-08-26T05:28:57.674Z,95.87
2022-08-26T05:29:57.653Z,95.87
2022-08-26T05:30:57.694Z,96.08
2022-08-26T05:31:57.642Z,96.37
2022-08-26T05:32:57.630Z,96.58
2022-08-26T05:33:57.661Z,96.63
2022-08-26T05:34:57.593Z,96.73
2022-08-26T05:35:57.606Z,96.83
2022-08-26T05:36:57.583Z,96.93
2022-08-26T05:37:57.552Z,97.24
2022-08-26T05:38:57.544Z,97.33
2022-08-26T05:39:57.627Z,97.44
2022-08-26T05:40:57.515Z,97.53
2022-08-26T05:41:57.523Z,97.64
2022-08-26T05:42:57.638Z,97.79
2022-08-26T05:43:57.485Z,97.59
2022-08-26T05:44:57.463Z,97.59
2022-08-26T05:45:57.510Z,97.79
2022-08-26T05:46:57.453Z,97.69
2022-08-26T05:47:57.428Z,97.44
2022-08-26T05:48:57.414Z,97.24
2022-08-26T05:49:57.393Z,96.69
2022-08-26T05:50:57.399Z,96.39
2022-08-26T05:51:57.384Z,96.19
2022-08-26T05:52:57.457Z,96.15
2022-08-26T05:53:57.346Z,95.95
2022-08-26T05:54:57.513Z,96.04
2022-08-26T05:55:58.143Z,95.84
2022-08-26T05:56:57.314Z,95.84
2022-08-26T05:57:57.481Z,95.95
2022-08-26T05:58:58.483Z,95.95
2022-08-26T05:59:57.273Z,96.04
2022-08-26T06:00:57.261Z,96.04
2022-08-26T06:01:57.365Z,95.84
2022-08-26T06:02:57.375Z,95.60
2022-08-26T06:03:57.246Z,95.60
2022-08-26T06:04:57.219Z,95.10
2022-08-26T06:05:57.192Z,94.65
2022-08-26T06:06:57.192Z,94.45
2022-08-26T06:07:57.166Z,94.45
2022-08-26T06:08:57.170Z,94.55
2022-08-26T06:10:21.336Z,94.55
2022-08-26T06:10:58.131Z,94.65
2022-08-26T06:11:57.114Z,94.65
2022-08-26T06:12:57.103Z,94.75
2022-08-26T06:14:01.212Z,94.55
2022-08-26T06:14:58.074Z,94.20
2022-08-26T06:15:57.096Z,94.20
2022-08-26T06:16:57.065Z,94.20
2022-08-26T06:17:57.045Z,93.90
2022-08-26T06:18:57.044Z,93.70
2022-08-26T06:19:57.024Z,93.55
2022-08-26T06:20:58.283Z,93.46
2022-08-26T06:21:57.013Z,93.70
2022-08-26T06:22:56.993Z,93.80
2022-08-26T06:23:56.955Z,94.00
2022-08-26T06:24:56.943Z,93.86
2022-08-26T06:25:57.044Z,93.46
2022-08-26T06:26:56.943Z,93.26
2022-08-26T06:27:56.909Z,93.05
2022-08-26T06:28:56.898Z,92.61
2022-08-26T06:29:56.979Z,92.41
2022-08-26T06:30:57.026Z,92.61
2022-08-26T06:31:56.871Z,92.71
2022-08-26T06:32:56.843Z,92.31
2022-08-26T06:33:56.831Z,92.21
2022-08-26T06:34:56.823Z,91.66
2022-08-26T06:35:56.813Z,91.47
2022-08-26T06:36:56.803Z,91.16
2022-08-26T06:37:56.792Z,90.96
2022-08-26T06:38:56.774Z,91.06
2022-08-26T06:39:56.797Z,90.66
2022-08-26T06:40:57.854Z,90.46
2022-08-26T06:41:56.733Z,91.06
2022-08-26T06:42:56.714Z,91.27
2022-08-26T06:43:56.713Z,91.56
2022-08-26T06:44:56.704Z,91.56
2022-08-26T06:45:56.705Z,91.47
2022-08-26T06:46:56.663Z,91.16
2022-08-26T06:47:56.654Z,91.06
2022-08-26T06:48:56.634Z,90.96
2022-08-26T06:49:56.613Z,90.86
2022-08-26T06:50:56.614Z,91.06
2022-08-26T06:51:56.617Z,90.96
2022-08-26T06:52:56.584Z,90.86
2022-08-26T06:53:56.563Z,91.06
2022-08-26T06:54:56.563Z,90.96
2022-08-26T06:55:56.582Z,91.27
2022-08-26T06:56:56.553Z,91.16
2022-08-26T06:57:56.535Z,91.27
2022-08-26T06:58:56.504Z,91.16
2022-08-26T06:59:56.532Z,90.96
2022-08-26T07:00:59.526Z,91.06
2022-08-26T07:01:57.509Z,90.86
2022-08-26T07:02:56.527Z,90.22
2022-08-26T07:03:57.108Z,90.56
2022-08-26T07:04:56.774Z,90.66
2022-08-26T07:05:56.404Z,90.72
2022-08-26T07:06:56.404Z,90.72
2022-08-26T07:07:56.394Z,90.52
2022-08-26T07:08:56.373Z,90.52
2022-08-26T07:09:56.355Z,90.82
2022-08-26T07:10:56.344Z,90.32
2022-08-26T07:11:56.381Z,90.17
2022-08-26T07:12:56.334Z,89.87
2022-08-26T07:13:56.316Z,89.58
2022-08-26T07:14:56.304Z,89.18
2022-08-26T07:15:57.365Z,89.18
2022-08-26T07:16:56.264Z,89.07
2022-08-26T07:17:56.284Z,89.07
2022-08-26T07:18:56.244Z,89.58
2022-08-26T07:19:56.226Z,89.42
2022-08-26T07:20:56.214Z,89.52
2022-08-26T07:21:56.214Z,89.52
2022-08-26T07:22:56.192Z,89.52
2022-08-26T07:24:01.535Z,89.52
2022-08-26T07:24:57.166Z,89.42
2022-08-26T07:25:56.200Z,89.42
2022-08-26T07:26:56.155Z,89.42
2022-08-26T07:27:56.126Z,89.82
2022-08-26T07:28:56.115Z,90.12
2022-08-26T07:29:56.095Z,90.22
2022-08-26T07:30:56.174Z,89.92
2022-08-26T07:31:56.320Z,89.58
2022-08-26T07:32:56.085Z,89.58
2022-08-26T07:33:56.045Z,89.07
2022-08-26T07:34:56.034Z,88.98
2022-08-26T07:35:56.026Z,88.64
2022-08-26T07:36:56.005Z,88.43
2022-08-26T07:37:57.162Z,88.53
2022-08-26T07:38:55.986Z,88.53
2022-08-26T07:39:56.032Z,88.23
2022-08-26T07:40:55.965Z,87.93
2022-08-26T07:41:55.945Z,87.73
2022-08-26T07:42:55.944Z,87.23
2022-08-26T07:43:55.915Z,87.63
2022-08-26T07:44:55.909Z,87.83
2022-08-26T07:45:55.897Z,87.63
2022-08-26T07:46:55.888Z,87.63
2022-08-26T07:47:55.885Z,87.73
2022-08-26T07:48:55.855Z,87.93
2022-08-26T07:49:55.845Z,88.03
2022-08-26T07:50:55.826Z,88.03
2022-08-26T07:51:55.875Z,88.23
2022-08-26T07:52:55.806Z,88.13
2022-08-26T07:53:55.795Z,88.03
2022-08-26T07:54:55.794Z,87.93
2022-08-26T07:55:55.803Z,88.09
2022-08-26T07:56:56.022Z,87.49
2022-08-26T07:57:55.756Z,87.49
2022-08-26T07:58:55.779Z,86.89
2022-08-26T07:59:55.716Z,86.49
2022-08-26T08:00:55.709Z,86.29
2022-08-26T08:01:55.724Z,86.49
2022-08-26T08:02:55.678Z,86.35
2022-08-26T08:03:55.665Z,86.89
2022-08-26T08:04:55.715Z,86.95
2022-08-26T08:05:55.645Z,86.75
2022-08-26T08:06:55.649Z,86.55
2022-08-26T08:08:26.503Z,86.75
2022-08-26T08:08:56.606Z,86.65
2022-08-26T08:09:55.606Z,86.85
2022-08-26T08:10:55.575Z,86.25
2022-08-26T08:11:55.568Z,86.35
2022-08-26T08:12:55.556Z,86.55
2022-08-26T08:13:56.397Z,86.39
2022-08-26T08:14:55.518Z,86.69
2022-08-26T08:15:55.514Z,86.79
2022-08-26T08:16:55.695Z,86.89
2022-08-26T08:17:57.624Z,87.29
2022-08-26T08:18:55.566Z,87.19
2022-08-26T08:19:55.467Z,87.09
2022-08-26T08:21:10.904Z,86.99
2022-08-26T08:21:56.447Z,86.75
2022-08-26T08:22:55.417Z,86.15
2022-08-26T08:23:55.409Z,86.05
2022-08-26T08:24:55.577Z,86.05
2022-08-26T08:25:55.506Z,85.75
2022-08-26T08:26:55.387Z,85.61
2022-08-26T08:27:55.368Z,85.61
2022-08-26T08:28:55.345Z,85.51
2022-08-26T08:29:55.327Z,85.11
2022-08-26T08:30:55.375Z,85.41
2022-08-26T08:31:56.573Z,85.45
2022-08-26T08:32:55.289Z,85.41
2022-08-26T08:33:55.280Z,85.31
2022-08-26T08:34:55.348Z,85.31
2022-08-26T08:35:55.247Z,85.71
2022-08-26T08:36:55.256Z,84.91
2022-08-26T08:37:55.236Z,85.21
2022-08-26T08:38:55.217Z,85.37
2022-08-26T08:39:55.249Z,84.87
2022-08-26T08:40:55.187Z,84.57
2022-08-26T08:41:55.407Z,84.91
2022-08-26T08:42:55.173Z,85.31
2022-08-26T08:43:55.157Z,85.41
2022-08-26T08:44:55.148Z,85.71
2022-08-26T08:45:55.208Z,85.61
2022-08-26T08:46:55.148Z,85.51
2022-08-26T08:47:55.097Z,85.71
2022-08-26T08:48:55.088Z,85.41
2022-08-26T08:49:55.068Z,85.31
2022-08-26T08:50:55.071Z,85.31
2022-08-26T08:51:55.072Z,85.41
2022-08-26T08:52:55.028Z,85.41
2022-08-26T08:53:55.088Z,85.71
2022-08-26T08:54:55.008Z,85.85
2022-08-26T08:55:55.017Z,86.45
2022-08-26T08:56:54.998Z,86.05
2022-08-26T08:57:54.967Z,86.55
2022-08-26T08:58:56.782Z,86.69
2022-08-26T08:59:54.938Z,86.89
2022-08-26T09:00:55.009Z,87.29
2022-08-26T09:01:54.917Z,87.29
2022-08-26T09:02:54.928Z,87.09
2022-08-26T09:03:54.889Z,87.29
2022-08-26T09:04:54.879Z,86.99
2022-08-26T09:05:55.260Z,87.39
2022-08-26T09:06:54.909Z,86.75
2022-08-26T09:07:54.849Z,86.75
2022-08-26T09:08:54.860Z,86.65
2022-08-26T09:09:54.818Z,86.35
2022-08-26T09:10:54.817Z,86.35
2022-08-26T09:11:54.799Z,86.35
2022-08-26T09:12:54.782Z,86.75
2022-08-26T09:13:54.760Z,86.65
2022-08-26T09:14:54.748Z,86.45
2022-08-26T09:15:54.729Z,86.45
2022-08-26T09:16:54.777Z,86.65
2022-08-26T09:17:54.730Z,86.45
2022-08-26T09:18:54.719Z,86.31
2022-08-26T09:19:54.688Z,86.01
2022-08-26T09:20:54.678Z,85.81
2022-08-26T09:21:54.670Z,85.95
2022-08-26T09:22:54.649Z,86.25
2022-08-26T09:23:54.629Z,86.55
2022-08-26T09:24:54.619Z,86.65
2022-08-26T09:26:54.610Z,86.25
2022-08-26T09:27:54.579Z,86.45
2022-08-26T09:28:54.580Z,86.45
2022-08-26T09:29:54.558Z,86.35
2022-08-26T09:30:54.588Z,85.85
2022-08-26T09:31:54.549Z,86.55
2022-08-26T09:32:55.729Z,86.55
2022-08-26T09:33:54.508Z,86.15
2022-08-26T09:34:54.499Z,86.55
2022-08-26T09:35:54.480Z,86.25
2022-08-26T09:36:54.480Z,86.11
2022-08-26T09:37:54.546Z,86.81
2022-08-26T09:38:54.460Z,85.61
2022-08-26T09:39:54.454Z,85.71
2022-08-26T09:40:58.962Z,84.91
2022-08-26T09:41:55.400Z,85.21
2022-08-26T09:42:54.400Z,84.71
2022-08-26T09:43:54.379Z,85.21
2022-08-26T09:44:54.372Z,85.01
2022-08-26T09:45:58.405Z,85.21
2022-08-26T09:46:55.340Z,85.11
2022-08-26T09:47:54.330Z,84.91
2022-08-26T09:48:54.321Z,84.71
2022-08-26T09:49:54.317Z,84.91
2022-08-26T09:50:54.298Z,84.47
2022-08-26T09:51:54.310Z,84.47
2022-08-26T09:52:54.271Z,84.07
2022-08-26T09:53:54.250Z,84.27
2022-08-26T09:54:54.251Z,84.27
2022-08-26T09:55:54.251Z,84.07
2022-08-26T09:56:54.213Z,83.67
2022-08-26T09:57:54.212Z,83.93
2022-08-26T09:58:54.192Z,83.63
2022-08-26T09:59:54.185Z,83.03
2022-08-26T10:00:54.208Z,82.64
2022-08-26T10:01:54.245Z,84.03
2022-08-26T10:02:57.942Z,83.69
2022-08-26T10:03:54.202Z,83.13
2022-08-26T10:04:54.107Z,82.83
2022-08-26T10:05:54.091Z,82.43
2022-08-26T10:06:54.082Z,82.89
2022-08-26T10:07:54.283Z,82.09
2022-08-26T10:08:54.239Z,82.39
2022-08-26T10:09:54.041Z,82.69
2022-08-26T10:10:54.034Z,82.20
2022-08-26T10:11:54.011Z,82.50
2022-08-26T10:12:54.021Z,82.09
2022-08-26T10:13:54.002Z,82.39
2022-08-26T10:14:54.002Z,82.09
2022-08-26T10:15:53.962Z,81.99
2022-08-26T10:16:54.020Z,82.50
2022-08-26T10:17:53.942Z,82.29
2022-08-26T10:18:58.108Z,81.99
2022-08-26T10:19:57.046Z,81.60
2022-08-26T10:20:53.926Z,81.60
2022-08-26T10:21:54.074Z,82.03
2022-08-26T10:22:53.900Z,82.23
2022-08-26T10:23:53.855Z,82.39
2022-08-26T10:24:55.258Z,82.39
2022-08-26T10:25:53.832Z,82.59
2022-08-26T10:26:54.822Z,82.06
2022-08-26T10:27:53.882Z,81.26
2022-08-26T10:28:53.802Z,81.85
2022-08-26T10:29:53.783Z,81.66
2022-08-26T10:30:53.801Z,81.12
2022-08-26T10:31:53.782Z,81.22
2022-08-26T10:32:54.770Z,81.02
2022-08-26T10:33:57.996Z,81.06
2022-08-26T10:34:54.714Z,81.46
2022-08-26T10:35:53.704Z,81.85
2022-08-26T10:37:14.592Z,80.96
2022-08-26T10:37:54.691Z,80.82
2022-08-26T10:38:53.663Z,80.42
2022-08-26T10:39:59.037Z,80.72
2022-08-26T10:40:54.645Z,80.02
2022-08-26T10:41:53.624Z,80.02
2022-08-26T10:42:53.633Z,80.42
2022-08-26T10:43:53.593Z,79.93
2022-08-26T10:45:00.682Z,80.38
2022-08-26T10:45:53.596Z,80.08
2022-08-26T10:46:53.570Z,79.39
2022-08-26T10:47:53.559Z,79.79
2022-08-26T10:48:53.540Z,79.58
2022-08-26T10:49:55.577Z,79.33
2022-08-26T10:50:54.511Z,79.99
2022-08-26T10:51:53.500Z,79.09
2022-08-26T10:52:53.500Z,78.99
2022-08-26T10:53:53.471Z,79.49
2022-08-26T10:54:53.468Z,79.88
2022-08-26T10:55:53.449Z,78.55
2022-08-26T10:56:53.448Z,77.82
2022-08-26T10:57:53.438Z,77.82
2022-08-26T10:58:53.420Z,77.58
2022-08-26T10:59:53.399Z,76.79
2022-08-26T11:00:53.478Z,77.25
2022-08-26T11:01:53.410Z,76.81
2022-08-26T11:02:53.371Z,75.92
2022-08-26T11:03:53.360Z,75.48
2022-08-26T11:04:53.339Z,73.80
2022-08-26T11:05:53.333Z,74.89
2022-08-26T11:06:53.320Z,74.39
2022-08-26T11:07:53.302Z,74.39
2022-08-26T11:08:53.304Z,74.69
2022-08-26T11:09:53.267Z,75.18
2022-08-26T11:10:53.255Z,75.18
2022-08-26T11:11:53.249Z,74.63
2022-08-26T11:12:53.417Z,74.73
2022-08-26T11:13:53.218Z,75.12
2022-08-26T11:14:59.069Z,75.06
2022-08-26T11:15:54.190Z,75.99
2022-08-26T11:16:53.242Z,76.09
2022-08-26T11:17:53.201Z,77.32
2022-08-26T11:18:53.201Z,76.89
2022-08-26T11:20:02.200Z,76.98
2022-08-26T11:20:54.142Z,75.95
2022-08-26T11:21:53.113Z,75.76
2022-08-26T11:22:53.112Z,74.86
2022-08-26T11:23:53.103Z,74.76
2022-08-26T11:24:53.103Z,75.95
2022-08-26T11:25:53.072Z,75.85
2022-08-26T11:26:56.173Z,75.32
2022-08-26T11:27:53.114Z,75.32
2022-08-26T11:28:53.032Z,75.12
2022-08-26T11:29:53.013Z,75.09
2022-08-26T11:30:57.855Z,74.29
2022-08-26T11:31:54.042Z,73.50
2022-08-26T11:32:53.025Z,74.09
2022-08-26T11:33:52.963Z,74.29
2022-08-26T11:34:52.953Z,73.80
2022-08-26T11:35:52.963Z,74.39
2022-08-26T11:36:52.931Z,74.69
2022-08-26T11:37:52.927Z,74.69
2022-08-26T11:38:52.905Z,74.35
2022-08-26T11:39:55.461Z,73.76
2022-08-26T11:40:52.884Z,72.57
2022-08-26T11:41:53.086Z,73.20
2022-08-26T11:42:52.865Z,73.10
2022-08-26T11:43:52.834Z,73.43
2022-08-26T11:44:52.824Z,73.93
2022-08-26T11:45:52.840Z,74.13
2022-08-26T11:46:52.804Z,74.52
2022-08-26T11:47:52.785Z,74.09
2022-08-26T11:48:52.794Z,74.09
2022-08-26T11:49:52.763Z,73.30
2022-08-26T11:50:52.755Z,73.16
2022-08-26T11:51:52.745Z,71.97
2022-08-26T11:52:52.758Z,71.88
2022-08-26T11:53:52.723Z,72.41
2022-08-26T11:54:52.704Z,73.20
2022-08-26T11:55:52.685Z,73.50
2022-08-26T11:56:52.688Z,73.63
2022-08-26T11:57:52.666Z,73.73
2022-08-26T11:58:52.655Z,73.83
2022-08-26T11:59:52.640Z,74.46
2022-08-26T12:00:52.628Z,74.86
2022-08-26T12:01:52.615Z,74.66
2022-08-26T12:02:52.765Z,74.52
2022-08-26T12:03:52.701Z,74.13
2022-08-26T12:04:52.576Z,74.43
2022-08-26T12:05:52.566Z,72.80
2022-08-26T12:06:53.403Z,73.00
2022-08-26T12:07:53.151Z,73.20
2022-08-26T12:08:52.528Z,73.00
2022-08-26T12:09:52.507Z,73.50
2022-08-26T12:10:52.507Z,72.80
2022-08-26T12:11:52.486Z,72.47
2022-08-26T12:12:53.487Z,72.73
2022-08-26T12:13:52.457Z,71.34
2022-08-26T12:14:52.447Z,71.34
2022-08-26T12:15:52.435Z,72.14
2022-08-26T12:16:52.506Z,71.34
2022-08-26T12:17:54.644Z,70.81
2022-08-26T12:18:52.397Z,71.01
2022-08-26T12:19:52.386Z,70.81
2022-08-26T12:20:52.368Z,70.09
2022-08-26T12:21:52.356Z,69.82
2022-08-26T12:22:52.367Z,70.81
2022-08-26T12:23:52.328Z,71.04
2022-08-26T12:24:52.326Z,71.44
2022-08-26T12:25:52.308Z,71.37
2022-08-26T12:26:52.307Z,71.88
2022-08-26T12:27:53.996Z,71.74
2022-08-26T12:28:52.275Z,72.04
2022-08-26T12:29:52.259Z,70.51
2022-08-26T12:30:52.249Z,70.91
2022-08-26T12:31:52.357Z,69.98
2022-08-26T12:32:57.711Z,68.57
2022-08-26T12:33:53.246Z,68.33
2022-08-26T12:34:52.228Z,68.04
2022-08-26T12:35:56.225Z,68.86
2022-08-26T12:36:52.200Z,68.76
2022-08-26T12:37:52.159Z,69.46
2022-08-26T12:38:53.739Z,69.95
2022-08-26T12:39:52.151Z,68.96
2022-08-26T12:40:52.122Z,69.29
2022-08-26T12:41:52.110Z,69.29
2022-08-26T12:42:52.089Z,69.65
2022-08-26T12:43:52.093Z,69.89
2022-08-26T12:44:54.247Z,69.56
2022-08-26T12:45:52.093Z,69.16
2022-08-26T12:46:52.040Z,66.33
2022-08-26T12:47:52.030Z,64.06
2022-08-26T12:48:52.030Z,63.96
2022-08-26T12:49:52.009Z,63.46
2022-08-26T12:50:51.991Z,61.80
2022-08-26T12:51:51.992Z,60.19
2022-08-26T12:52:51.961Z,61.37
2022-08-26T12:53:51.974Z,61.85
2022-08-26T12:54:56.563Z,63.40
2022-08-26T12:55:52.930Z,64.02
2022-08-26T12:56:51.971Z,64.58
2022-08-26T12:57:51.920Z,66.13
2022-08-26T12:58:51.922Z,66.75
2022-08-26T12:59:51.880Z,68.63
2022-08-26T13:00:52.002Z,67.97
2022-08-26T13:01:51.980Z,68.70
2022-08-26T13:02:51.840Z,69.59
2022-08-26T13:03:51.842Z,69.29
2022-08-26T13:04:51.811Z,69.49
2022-08-26T13:05:51.810Z,69.92
2022-08-26T13:06:51.791Z,70.72
2022-08-26T13:07:51.781Z,70.32
2022-08-26T13:08:51.775Z,70.88
2022-08-26T13:09:51.753Z,69.59
2022-08-26T13:10:51.733Z,68.90
2022-08-26T13:11:51.733Z,68.99
2022-08-26T13:12:51.713Z,69.09
2022-08-26T13:13:51.781Z,68.66
2022-08-26T13:14:51.703Z,68.27
2022-08-26T13:15:51.710Z,67.97
2022-08-26T13:16:51.664Z,66.42
2022-08-26T13:17:51.655Z,66.65
2022-08-26T13:18:51.648Z,64.61
2022-08-26T13:19:51.624Z,64.91
2022-08-26T13:20:51.605Z,65.17
2022-08-26T13:21:51.597Z,66.16
2022-08-26T13:22:53.836Z,66.19
2022-08-26T13:23:52.594Z,66.78
2022-08-26T13:24:51.555Z,67.11
2022-08-26T13:25:51.545Z,67.21
2022-08-26T13:26:51.536Z,66.88
2022-08-26T13:27:51.525Z,65.47
2022-08-26T13:29:01.988Z,65.96
2022-08-26T13:29:52.504Z,66.78
2022-08-26T13:30:51.486Z,67.21
2022-08-26T13:31:51.565Z,67.61
2022-08-26T13:32:51.468Z,67.61
2022-08-26T13:33:51.466Z,67.87
2022-08-26T13:34:51.538Z,68.99
2022-08-26T13:35:51.426Z,69.98
2022-08-26T13:36:51.411Z,69.69
2022-08-26T13:37:51.419Z,69.39
2022-08-26T13:38:51.912Z,69.06
2022-08-26T13:39:51.433Z,68.57
2022-08-26T13:40:51.357Z,68.27
2022-08-26T13:41:51.357Z,68.76
2022-08-26T13:42:51.337Z,69.36
2022-08-26T13:43:51.347Z,69.89
2022-08-26T13:44:51.307Z,70.18
2022-08-26T13:45:51.298Z,69.59
2022-08-26T13:46:51.289Z,70.28
2022-08-26T13:47:51.298Z,69.69
2022-08-26T13:48:51.279Z,69.89
2022-08-26T13:49:51.247Z,70.12
2022-08-26T13:50:51.238Z,70.42
2022-08-26T13:51:51.218Z,69.95
2022-08-26T13:52:51.215Z,69.98
2022-08-26T13:53:51.209Z,69.98
2022-08-26T13:54:51.188Z,69.59
2022-08-26T13:55:51.259Z,69.92
2022-08-26T13:56:51.159Z,70.22
2022-08-26T13:57:51.149Z,70.51
2022-08-26T13:58:51.153Z,70.45
2022-08-26T13:59:51.118Z,71.37
2022-08-26T14:00:51.143Z,71.54
2022-08-26T14:01:51.159Z,70.75
2022-08-26T14:02:51.110Z,70.85
2022-08-26T14:03:51.255Z,70.55
2022-08-26T14:04:51.060Z,70.72
2022-08-26T14:05:51.049Z,70.02
2022-08-26T14:06:51.042Z,69.92
2022-08-26T14:07:51.019Z,69.82
2022-08-26T14:08:51.013Z,69.82
2022-08-26T14:09:51.001Z,69.82
2022-08-26T14:10:50.981Z,69.72
2022-08-26T14:11:54.805Z,70.35
2022-08-26T14:12:50.961Z,70.06
2022-08-26T14:13:50.949Z,70.35
2022-08-26T14:14:50.940Z,70.48
2022-08-26T14:15:50.970Z,71.58
2022-08-26T14:16:59.061Z,71.04
2022-08-26T14:17:51.891Z,70.78
2022-08-26T14:18:51.122Z,70.98
2022-08-26T14:19:50.870Z,71.28
2022-08-26T14:20:50.860Z,71.58
2022-08-26T14:21:50.842Z,71.67
2022-08-26T14:23:12.716Z,72.31
2022-08-26T14:23:51.821Z,71.78
2022-08-26T14:24:50.822Z,71.67
2022-08-26T14:25:50.793Z,71.37
2022-08-26T14:26:50.789Z,70.98
2022-08-26T14:27:50.771Z,71.58
2022-08-26T14:28:50.761Z,71.37
2022-08-26T14:29:50.751Z,71.18
2022-08-26T14:30:50.741Z,71.48
2022-08-26T14:31:50.712Z,71.37
2022-08-26T14:32:50.721Z,71.61
2022-08-26T14:33:50.691Z,72.01
2022-08-26T14:34:50.692Z,72.04
2022-08-26T14:35:50.671Z,72.44
2022-08-26T14:36:50.662Z,72.54
2022-08-26T14:37:50.644Z,72.54
2022-08-26T14:38:50.633Z,72.64
2022-08-26T14:39:50.639Z,72.97
2022-08-26T14:40:50.613Z,73.03
2022-08-26T14:41:53.709Z,72.64
2022-08-26T14:42:52.899Z,72.64
2022-08-26T14:43:50.566Z,72.44
2022-08-26T14:44:50.573Z,72.54
2022-08-26T14:45:50.543Z,72.54
2022-08-26T14:46:50.577Z,72.24
2022-08-26T14:47:50.514Z,72.34
2022-08-26T14:48:50.512Z,72.54
2022-08-26T14:49:50.499Z,72.64
2022-08-26T14:50:50.484Z,72.44
2022-08-26T14:51:50.465Z,72.31
2022-08-26T14:52:50.454Z,72.90
2022-08-26T14:53:50.442Z,71.71
2022-08-26T14:54:53.720Z,71.61
2022-08-26T14:55:50.453Z,71.61
2022-08-26T14:56:50.423Z,72.04
2022-08-26T14:57:50.392Z,71.94
2022-08-26T14:58:50.386Z,72.14
2022-08-26T14:59:50.607Z,72.34
2022-08-26T15:00:50.354Z,72.84
2022-08-26T15:01:50.386Z,72.54
2022-08-26T15:02:50.470Z,72.74
2022-08-26T15:03:50.315Z,71.94
2022-08-26T15:04:50.425Z,72.54
2022-08-26T15:05:50.295Z,72.54
2022-08-26T15:06:50.286Z,72.24
2022-08-26T15:07:50.264Z,72.94
2022-08-26T15:08:50.255Z,72.24
2022-08-26T15:09:50.255Z,72.14
2022-08-26T15:10:50.225Z,72.04
2022-08-26T15:11:50.207Z,72.38
2022-08-26T15:12:50.203Z,72.77
2022-08-26T15:13:50.185Z,72.47
2022-08-26T15:14:50.205Z,72.87
2022-08-26T15:15:50.243Z,72.87
2022-08-26T15:16:50.158Z,73.00
2022-08-26T15:17:50.137Z,73.30
2022-08-26T15:18:50.127Z,73.30
2022-08-26T15:19:50.124Z,73.60
2022-08-26T15:20:50.105Z,73.50
2022-08-26T15:21:50.086Z,74.10
2022-08-26T15:22:50.075Z,74.00
2022-08-26T15:23:50.056Z,74.00
2022-08-26T15:24:53.642Z,73.80
2022-08-26T15:25:50.058Z,74.40
2022-08-26T15:26:50.018Z,74.50
2022-08-26T15:27:49.998Z,73.60
2022-08-26T15:28:49.998Z,73.37
2022-08-26T15:29:49.978Z,72.77
2022-08-26T15:30:50.039Z,72.47
2022-08-26T15:31:49.947Z,72.97
2022-08-26T15:32:49.945Z,72.58
2022-08-26T15:33:49.937Z,72.38
2022-08-26T15:34:49.917Z,72.38
2022-08-26T15:35:49.906Z,72.41
2022-08-26T15:36:49.887Z,72.51
2022-08-26T15:38:49.858Z,72.71
2022-08-26T15:39:49.939Z,72.21
2022-08-26T15:40:49.848Z,72.31
2022-08-26T15:41:49.817Z,72.21
2022-08-26T15:42:57.552Z,72.67
2022-08-26T15:43:50.788Z,72.17
2022-08-26T15:44:49.778Z,72.31
2022-08-26T15:45:49.777Z,72.41
2022-08-26T15:46:49.816Z,73.00
2022-08-26T15:48:01.542Z,72.71
2022-08-26T15:48:50.728Z,72.81
2022-08-26T15:49:49.708Z,72.71
2022-08-26T15:50:49.708Z,72.91
2022-08-26T15:51:49.678Z,73.41
2022-08-26T15:52:49.668Z,73.21
2022-08-26T15:53:49.657Z,73.11
2022-08-26T15:54:49.648Z,73.21
2022-08-26T15:55:49.639Z,73.41
2022-08-26T15:56:49.618Z,73.60
2022-08-26T15:57:49.598Z,74.04
2022-08-26T15:58:49.597Z,73.74
2022-08-26T15:59:49.581Z,73.84
2022-08-26T16:00:49.578Z,73.97
2022-08-26T16:01:49.587Z,74.37
2022-08-26T16:02:49.539Z,74.97
2022-08-26T16:03:49.519Z,75.50
2022-08-26T16:04:49.509Z,75.31
2022-08-26T16:05:49.570Z,76.00
2022-08-26T16:06:49.491Z,75.50
2022-08-26T16:07:49.469Z,75.70
2022-08-26T16:08:49.459Z,75.90
2022-08-26T16:09:52.057Z,75.80
2022-08-26T16:10:50.764Z,75.80
2022-08-26T16:11:49.422Z,75.70
2022-08-26T16:12:49.409Z,75.80
2022-08-26T16:13:49.391Z,75.70
2022-08-26T16:14:49.382Z,75.90
2022-08-26T16:15:49.445Z,76.04
2022-08-26T16:16:49.360Z,76.54
2022-08-26T16:17:49.349Z,76.43
2022-08-26T16:18:49.384Z,76.54
2022-08-26T16:19:49.319Z,76.64
2022-08-26T16:20:57.401Z,76.93
2022-08-26T16:21:50.301Z,77.27
2022-08-26T16:22:49.280Z,77.57
2022-08-26T16:23:49.269Z,77.77
2022-08-26T16:24:49.260Z,77.57
2022-08-26T16:25:49.240Z,77.67
2022-08-26T16:26:49.251Z,77.77
2022-08-26T16:27:49.221Z,77.77
2022-08-26T16:28:49.210Z,78.20
2022-08-26T16:29:49.191Z,77.91
2022-08-26T16:30:49.213Z,78.20
2022-08-26T16:31:49.170Z,78.41
2022-08-26T16:32:49.159Z,79.24
2022-08-26T16:33:49.140Z,79.14
2022-08-26T16:34:56.321Z,79.34
2022-08-26T16:36:49.123Z,79.34
2022-08-26T16:37:49.091Z,79.34
2022-08-26T16:38:49.084Z,79.24
2022-08-26T16:39:49.090Z,79.58
2022-08-26T16:40:49.067Z,79.48
2022-08-26T16:41:49.053Z,79.78
2022-08-26T16:42:49.030Z,79.68
2022-08-26T16:43:49.013Z,79.58
2022-08-26T16:44:49.002Z,79.38
2022-08-26T16:46:39.660Z,79.58
2022-08-26T16:47:39.464Z,79.28
2022-08-26T16:48:39.445Z,79.34
2022-08-26T16:49:39.445Z,79.54
2022-08-26T16:50:39.425Z,79.24
2022-08-26T16:51:39.419Z,79.24
2022-08-26T16:52:39.395Z,79.24
2022-08-26T16:53:39.385Z,79.38
2022-08-26T16:54:39.368Z,79.28
2022-08-26T16:55:39.355Z,79.28
2022-08-26T16:56:39.357Z,79.48
2022-08-26T16:57:39.339Z,79.38
2022-08-26T16:58:39.326Z,79.48
2022-08-26T16:59:39.306Z,79.88
2022-08-26T17:00:39.285Z,79.88
2022-08-26T17:01:39.312Z,79.78
2022-08-26T17:02:39.296Z,79.78
2022-08-26T17:03:39.259Z,79.88
2022-08-26T17:04:39.236Z,80.08
2022-08-26T17:05:39.227Z,79.88
2022-08-26T17:06:39.228Z,80.08
2022-08-26T17:07:39.215Z,80.08
2022-08-26T17:08:39.206Z,79.97
2022-08-26T17:09:39.186Z,80.08
2022-08-26T17:10:39.207Z,80.27
2022-08-26T17:11:39.167Z,79.97
2022-08-26T17:12:39.128Z,80.08
2022-08-26T17:13:39.126Z,80.47
2022-08-26T17:14:39.106Z,80.47
2022-08-26T17:15:39.152Z,80.08
2022-08-26T17:16:39.096Z,80.21
2022-08-26T17:17:39.075Z,80.32
2022-08-26T17:18:39.056Z,80.21
2022-08-26T17:19:41.068Z,80.32
2022-08-26T17:20:40.027Z,80.51
2022-08-26T17:21:39.035Z,80.41
2022-08-26T17:22:39.006Z,80.51
2022-08-26T17:23:38.994Z,80.32
2022-08-26T17:24:38.977Z,80.41
2022-08-26T17:25:38.967Z,80.02
2022-08-26T17:26:38.977Z,80.11